createdAt,value
2023-05-08T00:00:23.001Z,0.00
2023-05-08T00:01:13.656Z,0.00
2023-05-08T00:02:04.877Z,0.00
2023-05-08T00:02:56.198Z,0.00
2023-05-08T00:03:47.458Z,0.00
2023-05-08T00:04:39.848Z,0.00
2023-05-08T00:05:29.368Z,0.00
2023-05-08T00:06:20.175Z,0.00
2023-05-08T00:07:11.342Z,0.00
2023-05-08T00:08:02.055Z,1.00
2023-05-08T00:08:53.389Z,0.00
2023-05-08T00:09:44.345Z,0.00
2023-05-08T00:10:35.146Z,0.00
2023-05-08T00:11:25.910Z,0.00
2023-05-08T00:12:16.679Z,0.00
2023-05-08T00:13:07.455Z,0.00
2023-05-08T00:13:58.220Z,0.00
2023-05-08T00:14:49.003Z,0.00
2023-05-08T00:15:39.797Z,0.00
2023-05-08T00:16:30.618Z,0.00
2023-05-08T00:17:22.844Z,0.00
2023-05-08T00:18:12.263Z,0.00
2023-05-08T00:19:03.054Z,0.00
2023-05-08T00:19:53.850Z,0.00
2023-05-08T00:20:44.621Z,0.00
2023-05-08T00:21:35.411Z,0.00
2023-05-08T00:22:26.209Z,0.00
2023-05-08T00:23:16.991Z,0.00
2023-05-08T00:24:07.807Z,0.00
2023-05-08T00:24:58.591Z,0.00
2023-05-08T00:25:49.392Z,0.00
2023-05-08T00:26:40.817Z,0.00
2023-05-08T00:27:30.874Z,0.00
2023-05-08T00:28:21.668Z,0.00
2023-05-08T00:29:12.452Z,0.00
2023-05-08T00:30:03.264Z,0.00
2023-05-08T00:30:54.062Z,0.00
2023-05-08T00:31:44.879Z,0.00
2023-05-08T00:32:35.686Z,0.00
2023-05-08T00:33:26.437Z,0.00
2023-05-08T00:34:17.231Z,0.00
2023-05-08T00:35:09.878Z,0.00
2023-05-08T00:35:59.321Z,0.00
2023-05-08T00:36:50.090Z,0.00
2023-05-08T00:37:40.900Z,0.00
2023-05-08T00:38:31.666Z,0.00
2023-05-08T00:39:22.458Z,0.00
2023-05-08T00:40:13.456Z,0.00
2023-05-08T00:41:04.371Z,0.00
2023-05-08T00:41:55.141Z,0.00
2023-05-08T00:42:45.936Z,0.00
2023-05-08T00:43:36.721Z,0.00
2023-05-08T00:44:27.545Z,0.00
2023-05-08T00:45:18.334Z,0.00
2023-05-08T00:46:09.147Z,0.00
2023-05-08T00:46:59.922Z,0.00
2023-05-08T00:47:50.949Z,0.00
2023-05-08T00:48:42.869Z,0.00
2023-05-08T00:49:39.866Z,0.00
2023-05-08T00:50:26.872Z,0.00
2023-05-08T00:51:17.862Z,0.00
2023-05-08T00:52:21.878Z,0.00
2023-05-08T00:52:57.869Z,0.00
2023-05-08T00:53:48.112Z,0.00
2023-05-08T00:54:40.259Z,0.00
2023-05-08T00:55:30.863Z,0.00
2023-05-08T00:56:21.218Z,0.00
2023-05-08T00:57:11.934Z,0.00
2023-05-08T00:58:06.884Z,0.00
2023-05-08T00:58:56.911Z,0.00
2023-05-08T00:59:50.396Z,0.00
2023-05-08T01:00:37.369Z,0.00
2023-05-08T01:01:26.936Z,0.00
2023-05-08T01:02:17.750Z,0.00
2023-05-08T01:03:08.614Z,0.00
2023-05-08T01:03:59.454Z,0.00
2023-05-08T01:04:50.286Z,0.00
2023-05-08T01:05:43.381Z,0.00
2023-05-08T01:06:32.225Z,0.00
2023-05-08T01:07:23.115Z,0.00
2023-05-08T01:08:13.950Z,0.00
2023-05-08T01:09:05.232Z,0.00
2023-05-08T01:09:56.230Z,0.00
2023-05-08T01:10:47.334Z,0.00
2023-05-08T01:11:42.441Z,0.00
2023-05-08T01:12:30.383Z,0.00
2023-05-08T01:13:21.524Z,0.00
2023-05-08T01:14:11.465Z,0.00
2023-05-08T01:15:04.371Z,0.00
2023-05-08T01:15:53.500Z,0.00
2023-05-08T01:16:44.876Z,0.00
2023-05-08T01:17:35.634Z,0.00
2023-05-08T01:18:33.399Z,0.00
2023-05-08T01:19:17.795Z,0.00
2023-05-08T01:20:08.628Z,0.00
2023-05-08T01:20:59.384Z,0.00
2023-05-08T01:21:50.170Z,0.00
2023-05-08T01:22:40.968Z,0.00
2023-05-08T01:23:31.755Z,0.00
2023-05-08T01:24:22.538Z,0.00
2023-05-08T01:25:13.303Z,0.00
2023-05-08T01:26:04.092Z,0.00
2023-05-08T01:26:54.882Z,0.00
2023-05-08T01:27:45.659Z,0.00
2023-05-08T01:28:36.426Z,0.00
2023-05-08T01:29:27.217Z,0.00
2023-05-08T01:30:17.997Z,0.00
2023-05-08T01:31:08.798Z,0.00
2023-05-08T01:31:59.580Z,0.00
2023-05-08T01:32:50.450Z,0.00
2023-05-08T01:33:41.240Z,0.00
2023-05-08T01:34:31.991Z,0.00
2023-05-08T01:35:22.776Z,0.00
2023-05-08T01:36:13.557Z,0.00
2023-05-08T01:37:05.344Z,0.00
2023-05-08T01:37:55.463Z,0.00
2023-05-08T01:38:46.242Z,0.00
2023-05-08T01:39:37.022Z,0.00
2023-05-08T01:40:28.835Z,0.00
2023-05-08T01:41:18.912Z,0.00
2023-05-08T01:42:09.710Z,0.00
2023-05-08T01:43:00.479Z,0.00
2023-05-08T01:43:51.262Z,0.00
2023-05-08T01:44:42.673Z,0.00
2023-05-08T01:45:32.792Z,0.00
2023-05-08T01:46:23.881Z,0.00
2023-05-08T01:47:14.668Z,0.00
2023-05-08T01:48:05.524Z,0.00
2023-05-08T01:48:56.265Z,0.00
2023-05-08T01:49:47.021Z,0.00
2023-05-08T01:50:37.798Z,0.00
2023-05-08T01:51:29.126Z,0.00
2023-05-08T01:52:19.257Z,0.00
2023-05-08T01:53:10.061Z,0.00
2023-05-08T01:54:00.877Z,0.00
2023-05-08T01:54:51.628Z,0.00
2023-05-08T01:55:42.424Z,0.00
2023-05-08T01:56:33.209Z,0.00
2023-05-08T01:57:23.999Z,0.00
2023-05-08T01:58:14.791Z,0.00
2023-05-08T01:59:05.557Z,0.00
2023-05-08T01:59:56.331Z,0.00
2023-05-08T02:00:47.158Z,0.00
2023-05-08T02:01:37.908Z,0.00
2023-05-08T02:02:28.810Z,0.00
2023-05-08T02:03:19.616Z,0.00
2023-05-08T02:04:10.430Z,0.00
2023-05-08T02:05:01.174Z,0.00
2023-05-08T02:05:51.955Z,0.00
2023-05-08T02:06:42.736Z,0.00
2023-05-08T02:07:33.522Z,0.00
2023-05-08T02:08:24.291Z,0.00
2023-05-08T02:09:15.096Z,0.00
2023-05-08T02:10:05.862Z,0.00
2023-05-08T02:10:56.622Z,0.00
2023-05-08T02:11:47.405Z,0.00
2023-05-08T02:12:38.259Z,0.00
2023-05-08T02:13:29.054Z,0.00
2023-05-08T02:14:19.799Z,0.00
2023-05-08T02:15:10.618Z,0.00
2023-05-08T02:16:01.407Z,0.00
2023-05-08T02:16:52.220Z,0.00
2023-05-08T02:17:43.027Z,0.00
2023-05-08T02:18:33.752Z,0.00
2023-05-08T02:19:24.532Z,0.00
2023-05-08T02:20:15.484Z,0.00
2023-05-08T02:21:06.561Z,0.00
2023-05-08T02:21:57.613Z,0.00
2023-05-08T02:22:48.802Z,0.00
2023-05-08T02:23:39.527Z,0.00
2023-05-08T02:24:30.317Z,0.00
2023-05-08T02:25:20.968Z,0.00
2023-05-08T02:26:12.062Z,0.00
2023-05-08T02:27:03.259Z,0.00
2023-05-08T02:27:54.512Z,0.00
2023-05-08T02:28:45.597Z,0.00
2023-05-08T02:29:36.256Z,0.00
2023-05-08T02:30:27.053Z,0.00
2023-05-08T02:31:17.765Z,0.00
2023-05-08T02:32:08.516Z,0.00
2023-05-08T02:33:00.589Z,0.00
2023-05-08T02:33:50.240Z,0.00
2023-05-08T02:34:48.012Z,0.00
2023-05-08T02:35:33.041Z,0.00
2023-05-08T02:36:23.174Z,0.00
2023-05-08T02:37:13.921Z,0.00
2023-05-08T02:38:04.684Z,0.00
2023-05-08T02:38:55.687Z,0.00
2023-05-08T02:39:46.445Z,0.00
2023-05-08T02:40:37.245Z,0.00
2023-05-08T02:41:28.005Z,0.00
2023-05-08T02:42:18.754Z,0.00
2023-05-08T02:43:09.541Z,0.00
2023-05-08T02:44:00.275Z,0.00
2023-05-08T02:44:51.042Z,0.00
2023-05-08T02:45:41.858Z,0.00
2023-05-08T02:46:32.648Z,0.00
2023-05-08T02:47:23.518Z,0.00
2023-05-08T02:48:14.275Z,0.00
2023-05-08T02:49:05.033Z,0.00
2023-05-08T02:49:55.803Z,0.00
2023-05-08T02:50:46.618Z,0.00
2023-05-08T02:51:37.406Z,0.00
2023-05-08T02:52:28.177Z,0.00
2023-05-08T02:53:18.918Z,0.00
2023-05-08T02:54:09.598Z,1.00
2023-05-08T02:55:00.583Z,1.00
2023-05-08T02:55:51.464Z,1.00
2023-05-08T02:56:42.332Z,1.00
2023-05-08T02:57:33.181Z,1.00
2023-05-08T02:58:24.081Z,1.00
2023-05-08T02:59:15.423Z,1.00
2023-05-08T03:00:05.920Z,2.00
2023-05-08T03:00:56.667Z,0.00
2023-05-08T03:01:47.562Z,0.00
2023-05-08T03:02:38.422Z,0.00
2023-05-08T03:03:29.419Z,2.00
2023-05-08T03:04:20.305Z,2.00
2023-05-08T03:05:11.121Z,0.00
2023-05-08T03:06:02.070Z,1.00
2023-05-08T03:06:52.921Z,1.00
2023-05-08T03:07:43.761Z,0.00
2023-05-08T03:08:34.381Z,2.00
2023-05-08T03:09:25.230Z,6.00
2023-05-08T03:10:16.131Z,3.00
2023-05-08T03:11:06.982Z,3.00
2023-05-08T03:11:57.845Z,2.00
2023-05-08T03:12:48.779Z,4.00
2023-05-08T03:13:39.617Z,6.00
2023-05-08T03:14:30.494Z,5.00
2023-05-08T03:15:21.335Z,8.00
2023-05-08T03:16:12.232Z,7.00
2023-05-08T03:17:03.074Z,13.00
2023-05-08T03:17:54.001Z,10.00
2023-05-08T03:18:44.868Z,9.00
2023-05-08T03:19:35.743Z,8.00
2023-05-08T03:20:26.609Z,9.00
2023-05-08T03:21:17.480Z,13.00
2023-05-08T03:22:08.359Z,10.00
2023-05-08T03:22:59.217Z,9.00
2023-05-08T03:23:50.102Z,10.00
2023-05-08T03:24:40.966Z,11.00
2023-05-08T03:25:31.840Z,8.00
2023-05-08T03:26:22.729Z,11.00
2023-05-08T03:27:13.598Z,14.00
2023-05-08T03:28:04.497Z,15.00
2023-05-08T03:28:55.417Z,18.00
2023-05-08T03:29:46.290Z,18.00
2023-05-08T03:30:37.166Z,17.00
2023-05-08T03:31:28.097Z,21.00
2023-05-08T03:32:18.940Z,21.00
2023-05-08T03:33:09.860Z,25.00
2023-05-08T03:34:00.697Z,25.00
2023-05-08T03:34:51.564Z,29.00
2023-05-08T03:35:42.442Z,29.00
2023-05-08T03:36:33.327Z,35.00
2023-05-08T03:37:24.206Z,33.00
2023-05-08T03:38:15.089Z,30.00
2023-05-08T03:39:05.992Z,38.00
2023-05-08T03:39:56.846Z,38.00
2023-05-08T03:40:47.730Z,43.00
2023-05-08T03:41:38.635Z,42.00
2023-05-08T03:42:29.488Z,42.00
2023-05-08T03:43:20.354Z,49.00
2023-05-08T03:44:11.261Z,52.00
2023-05-08T03:45:02.109Z,52.00
2023-05-08T03:45:52.981Z,60.00
2023-05-08T03:46:43.877Z,56.00
2023-05-08T03:47:34.836Z,59.00
2023-05-08T03:48:25.726Z,67.00
2023-05-08T03:49:16.574Z,66.00
2023-05-08T03:50:07.485Z,71.00
2023-05-08T03:50:58.350Z,75.00
2023-05-08T03:51:49.250Z,73.00
2023-05-08T03:52:40.125Z,76.00
2023-05-08T03:53:31.006Z,77.00
2023-05-08T03:54:21.888Z,82.00
2023-05-08T03:55:12.756Z,88.00
2023-05-08T03:56:03.642Z,88.00
2023-05-08T03:56:54.504Z,77.00
2023-05-08T03:57:45.400Z,77.00
2023-05-08T03:58:36.283Z,77.00
2023-05-08T03:59:27.191Z,81.00
2023-05-08T04:00:18.058Z,80.00
2023-05-08T04:01:09.008Z,81.00
2023-05-08T04:01:59.927Z,106.00
2023-05-08T04:02:50.844Z,108.00
2023-05-08T04:03:41.774Z,111.00
2023-05-08T04:04:32.640Z,113.00
2023-05-08T04:05:23.534Z,117.00
2023-05-08T04:06:14.453Z,118.00
2023-05-08T04:07:05.338Z,121.00
2023-05-08T04:07:56.245Z,123.00
2023-05-08T04:08:47.148Z,126.00
2023-05-08T04:09:38.024Z,128.00
2023-05-08T04:10:28.918Z,131.00
2023-05-08T04:11:19.804Z,133.00
2023-05-08T04:12:10.699Z,135.00
2023-05-08T04:13:01.656Z,137.00
2023-05-08T04:13:52.519Z,140.00
2023-05-08T04:14:43.446Z,142.00
2023-05-08T04:15:34.310Z,110.00
2023-05-08T04:16:25.246Z,89.00
2023-05-08T04:17:16.092Z,129.00
2023-05-08T04:18:07.060Z,129.00
2023-05-08T04:18:57.918Z,111.00
2023-05-08T04:19:48.806Z,155.00
2023-05-08T04:20:39.696Z,158.00
2023-05-08T04:21:30.599Z,160.00
2023-05-08T04:22:21.497Z,162.00
2023-05-08T04:23:12.396Z,164.00
2023-05-08T04:24:03.304Z,167.00
2023-05-08T04:24:54.204Z,171.00
2023-05-08T04:25:45.096Z,171.00
2023-05-08T04:26:36.017Z,173.00
2023-05-08T04:27:26.901Z,177.00
2023-05-08T04:28:17.799Z,178.00
2023-05-08T04:29:08.696Z,182.00
2023-05-08T04:29:59.622Z,184.00
2023-05-08T04:30:50.498Z,186.00
2023-05-08T04:31:41.458Z,189.00
2023-05-08T04:32:32.325Z,191.00
2023-05-08T04:33:23.242Z,193.00
2023-05-08T04:34:14.197Z,196.00
2023-05-08T04:35:05.281Z,196.00
2023-05-08T04:35:56.160Z,197.00
2023-05-08T04:36:47.050Z,199.00
2023-05-08T04:37:38.484Z,201.00
2023-05-08T04:38:28.782Z,203.00
2023-05-08T04:39:20.383Z,206.00
2023-05-08T04:40:10.682Z,210.00
2023-05-08T04:41:02.450Z,211.00
2023-05-08T04:41:52.856Z,213.00
2023-05-08T04:42:43.732Z,216.00
2023-05-08T04:43:34.660Z,217.00
2023-05-08T04:44:25.602Z,218.00
2023-05-08T04:45:16.526Z,220.00
2023-05-08T04:46:07.450Z,223.00
2023-05-08T04:46:58.338Z,226.00
2023-05-08T04:47:49.298Z,229.00
2023-05-08T04:48:40.145Z,231.00
2023-05-08T04:49:31.061Z,232.00
2023-05-08T04:50:21.963Z,233.00
2023-05-08T04:51:12.853Z,236.00
2023-05-08T04:52:03.752Z,237.00
2023-05-08T04:52:54.677Z,239.00
2023-05-08T04:53:45.594Z,241.00
2023-05-08T04:54:36.498Z,100.00
2023-05-08T04:55:27.418Z,168.00
2023-05-08T04:56:18.316Z,200.00
2023-05-08T04:57:09.228Z,156.00
2023-05-08T04:58:00.161Z,249.00
2023-05-08T04:58:51.054Z,196.00
2023-05-08T04:59:41.951Z,174.00
2023-05-08T05:00:32.857Z,257.00
2023-05-08T05:01:23.849Z,258.00
2023-05-08T05:02:14.705Z,260.00
2023-05-08T05:03:05.702Z,263.00
2023-05-08T05:03:56.677Z,266.00
2023-05-08T05:04:47.574Z,268.00
2023-05-08T05:05:38.996Z,269.00
2023-05-08T05:06:29.372Z,271.00
2023-05-08T05:07:20.278Z,276.00
2023-05-08T05:08:11.204Z,277.00
2023-05-08T05:09:02.116Z,280.00
2023-05-08T05:09:53.027Z,281.00
2023-05-08T05:10:43.933Z,284.00
2023-05-08T05:11:34.832Z,284.00
2023-05-08T05:12:25.732Z,287.00
2023-05-08T05:13:16.690Z,289.00
2023-05-08T05:14:07.658Z,289.00
2023-05-08T05:14:58.573Z,293.00
2023-05-08T05:15:49.502Z,295.00
2023-05-08T05:16:40.426Z,296.00
2023-05-08T05:17:31.384Z,300.00
2023-05-08T05:18:22.289Z,302.00
2023-05-08T05:19:13.239Z,302.00
2023-05-08T05:20:04.118Z,305.00
2023-05-08T05:20:55.043Z,308.00
2023-05-08T05:21:45.968Z,308.00
2023-05-08T05:22:36.866Z,311.00
2023-05-08T05:23:27.785Z,314.00
2023-05-08T05:24:18.681Z,315.00
2023-05-08T05:25:09.617Z,318.00
2023-05-08T05:26:00.503Z,321.00
2023-05-08T05:26:51.394Z,320.00
2023-05-08T05:27:42.299Z,322.00
2023-05-08T05:28:33.199Z,325.00
2023-05-08T05:29:24.094Z,326.00
2023-05-08T05:30:15.574Z,329.00
2023-05-08T05:31:06.470Z,330.00
2023-05-08T05:31:57.658Z,333.00
2023-05-08T05:32:48.011Z,338.00
2023-05-08T05:33:38.880Z,339.00
2023-05-08T05:34:29.780Z,340.00
2023-05-08T05:35:20.689Z,341.00
2023-05-08T05:36:11.612Z,343.00
2023-05-08T05:37:02.499Z,347.00
2023-05-08T05:37:53.420Z,347.00
2023-05-08T05:38:44.356Z,349.00
2023-05-08T05:39:35.264Z,350.00
2023-05-08T05:40:26.194Z,352.00
2023-05-08T05:41:17.095Z,355.00
2023-05-08T05:42:07.994Z,357.00
2023-05-08T05:42:58.925Z,359.00
2023-05-08T05:43:49.807Z,362.00
2023-05-08T05:44:40.702Z,365.00
2023-05-08T05:45:33.448Z,366.00
2023-05-08T05:46:22.858Z,368.00
2023-05-08T05:47:13.854Z,373.00
2023-05-08T05:48:04.759Z,372.00
2023-05-08T05:48:55.644Z,375.00
2023-05-08T05:49:46.549Z,376.00
2023-05-08T05:50:37.457Z,379.00
2023-05-08T05:51:28.369Z,380.00
2023-05-08T05:52:19.284Z,383.00
2023-05-08T05:53:10.208Z,384.00
2023-05-08T05:54:01.101Z,386.00
2023-05-08T05:54:52.003Z,389.00
2023-05-08T05:55:42.936Z,390.00
2023-05-08T05:56:33.837Z,392.00
2023-05-08T05:57:24.812Z,393.00
2023-05-08T05:58:15.695Z,395.00
2023-05-08T05:59:06.594Z,399.00
2023-05-08T05:59:57.486Z,400.00
2023-05-08T06:00:48.393Z,401.00
2023-05-08T06:01:39.407Z,404.00
2023-05-08T06:02:30.425Z,406.00
2023-05-08T06:03:21.424Z,406.00
2023-05-08T06:04:12.409Z,408.00
2023-05-08T06:05:03.377Z,412.00
2023-05-08T06:05:55.367Z,414.00
2023-05-08T06:06:45.395Z,416.00
2023-05-08T06:07:36.299Z,416.00
2023-05-08T06:08:27.217Z,418.00
2023-05-08T06:09:18.114Z,421.00
2023-05-08T06:10:09.050Z,423.00
2023-05-08T06:11:00.090Z,425.00
2023-05-08T06:11:50.990Z,426.00
2023-05-08T06:12:41.925Z,429.00
2023-05-08T06:13:33.086Z,432.00
2023-05-08T06:14:24.000Z,434.00
2023-05-08T06:15:15.146Z,436.00
2023-05-08T06:16:05.604Z,438.00
2023-05-08T06:16:56.537Z,438.00
2023-05-08T06:17:47.436Z,440.00
2023-05-08T06:18:38.337Z,439.00
2023-05-08T06:19:29.233Z,442.00
2023-05-08T06:20:20.145Z,446.00
2023-05-08T06:21:11.058Z,449.00
2023-05-08T06:22:01.964Z,449.00
2023-05-08T06:22:52.867Z,451.00
2023-05-08T06:23:43.760Z,455.00
2023-05-08T06:24:34.663Z,458.00
2023-05-08T06:25:25.571Z,460.00
2023-05-08T06:26:16.481Z,462.00
2023-05-08T06:27:07.414Z,465.00
2023-05-08T06:27:58.309Z,467.00
2023-05-08T06:28:49.895Z,469.00
2023-05-08T06:29:40.165Z,471.00
2023-05-08T06:30:31.199Z,472.00
2023-05-08T06:31:22.192Z,474.00
2023-05-08T06:32:13.083Z,477.00
2023-05-08T06:33:04.043Z,477.00
2023-05-08T06:33:54.932Z,483.00
2023-05-08T06:34:45.832Z,487.00
2023-05-08T06:35:36.756Z,485.00
2023-05-08T06:36:27.675Z,487.00
2023-05-08T06:37:18.585Z,491.00
2023-05-08T06:38:09.511Z,492.00
2023-05-08T06:39:00.408Z,495.00
2023-05-08T06:40:03.894Z,497.00
2023-05-08T06:40:43.220Z,501.00
2023-05-08T06:41:32.904Z,504.00
2023-05-08T06:42:23.816Z,503.00
2023-05-08T06:43:14.731Z,508.00
2023-05-08T06:44:05.632Z,513.00
2023-05-08T06:44:56.527Z,516.00
2023-05-08T06:45:47.429Z,520.00
2023-05-08T06:46:38.359Z,523.00
2023-05-08T06:47:29.350Z,527.00
2023-05-08T06:48:20.195Z,532.00
2023-05-08T06:49:11.110Z,532.00
2023-05-08T06:50:02.965Z,539.00
2023-05-08T06:50:52.630Z,544.00
2023-05-08T06:51:43.545Z,548.00
2023-05-08T06:52:34.451Z,552.00
2023-05-08T06:53:25.405Z,555.00
2023-05-08T06:54:16.318Z,560.00
2023-05-08T06:55:07.227Z,564.00
2023-05-08T06:55:58.127Z,567.00
2023-05-08T06:56:49.026Z,571.00
2023-05-08T06:57:39.941Z,578.00
2023-05-08T06:58:30.846Z,581.00
2023-05-08T06:59:21.745Z,585.00
2023-05-08T07:00:13.900Z,589.00
2023-05-08T07:01:03.562Z,595.00
2023-05-08T07:01:54.477Z,601.00
2023-05-08T07:02:45.492Z,604.00
2023-05-08T07:03:36.370Z,610.00
2023-05-08T07:04:27.371Z,613.00
2023-05-08T07:05:18.557Z,619.00
2023-05-08T07:06:08.921Z,622.00
2023-05-08T07:06:59.830Z,627.00
2023-05-08T07:07:50.739Z,626.00
2023-05-08T07:08:42.399Z,624.00
2023-05-08T07:09:32.688Z,636.00
2023-05-08T07:10:23.627Z,638.00
2023-05-08T07:11:14.519Z,639.00
2023-05-08T07:12:05.453Z,645.00
2023-05-08T07:12:56.405Z,650.00
2023-05-08T07:13:47.305Z,655.00
2023-05-08T07:14:38.224Z,655.00
2023-05-08T07:15:29.259Z,658.00
2023-05-08T07:16:20.322Z,669.00
2023-05-08T07:17:11.184Z,680.00
2023-05-08T07:18:02.262Z,676.00
2023-05-08T07:18:53.164Z,683.00
2023-05-08T07:19:44.064Z,690.00
2023-05-08T07:20:34.988Z,695.00
2023-05-08T07:21:25.897Z,703.00
2023-05-08T07:22:16.836Z,707.00
2023-05-08T07:23:07.725Z,709.00
2023-05-08T07:23:58.648Z,713.00
2023-05-08T07:24:49.543Z,724.00
2023-05-08T07:25:40.462Z,729.00
2023-05-08T07:26:31.378Z,737.00
2023-05-08T07:27:22.288Z,742.00
2023-05-08T07:28:13.202Z,747.00
2023-05-08T07:29:04.132Z,754.00
2023-05-08T07:29:55.044Z,758.00
2023-05-08T07:30:45.967Z,765.00
2023-05-08T07:31:36.909Z,773.00
2023-05-08T07:32:27.819Z,785.00
2023-05-08T07:33:20.476Z,799.00
2023-05-08T07:34:09.534Z,798.00
2023-05-08T07:35:00.482Z,809.00
2023-05-08T07:35:51.953Z,820.00
2023-05-08T07:36:42.316Z,832.00
2023-05-08T07:37:33.193Z,840.00
2023-05-08T07:38:25.956Z,847.00
2023-05-08T07:39:15.218Z,864.00
2023-05-08T07:40:06.167Z,874.00
2023-05-08T07:40:57.359Z,884.00
2023-05-08T07:41:49.980Z,895.00
2023-05-08T07:42:39.176Z,901.00
2023-05-08T07:43:31.464Z,910.00
2023-05-08T07:44:22.162Z,915.00
2023-05-08T07:45:12.387Z,922.00
2023-05-08T07:46:03.085Z,937.00
2023-05-08T07:46:54.041Z,949.00
2023-05-08T07:47:44.954Z,954.00
2023-05-08T07:48:35.876Z,964.00
2023-05-08T07:49:26.761Z,980.00
2023-05-08T07:50:17.708Z,982.00
2023-05-08T07:51:08.590Z,989.00
2023-05-08T07:51:59.512Z,1009.00
2023-05-08T07:52:50.633Z,1016.00
2023-05-08T07:53:41.568Z,1035.00
2023-05-08T07:54:32.471Z,1039.00
2023-05-08T07:55:23.396Z,1045.00
2023-05-08T07:56:14.320Z,1059.00
2023-05-08T07:57:05.242Z,1067.00
2023-05-08T07:57:56.153Z,1078.00
2023-05-08T07:58:47.082Z,1087.00
2023-05-08T07:59:38.010Z,1089.00
2023-05-08T08:00:28.937Z,1104.00
2023-05-08T08:01:19.864Z,1109.00
2023-05-08T08:02:10.837Z,1115.00
2023-05-08T08:03:01.833Z,1114.00
2023-05-08T08:03:52.889Z,1124.00
2023-05-08T08:04:43.822Z,1129.00
2023-05-08T08:05:34.722Z,1136.00
2023-05-08T08:06:25.658Z,1138.00
2023-05-08T08:07:16.630Z,1142.00
2023-05-08T08:08:07.524Z,1128.00
2023-05-08T08:08:58.448Z,1115.00
2023-05-08T08:09:49.380Z,1106.00
2023-05-08T08:10:40.350Z,1100.00
2023-05-08T08:11:31.223Z,1106.00
2023-05-08T08:12:22.153Z,1100.00
2023-05-08T08:13:13.091Z,1101.00
2023-05-08T08:14:04.019Z,1098.00
2023-05-08T08:14:54.933Z,1084.00
2023-05-08T08:15:45.864Z,1076.00
2023-05-08T08:16:36.803Z,1054.00
2023-05-08T08:17:28.925Z,1040.00
2023-05-08T08:18:18.865Z,1023.00
2023-05-08T08:19:09.857Z,1010.00
2023-05-08T08:20:00.722Z,990.00
2023-05-08T08:20:51.613Z,966.00
2023-05-08T08:21:42.522Z,962.00
2023-05-08T08:22:33.439Z,961.00
2023-05-08T08:23:24.369Z,958.00
2023-05-08T08:24:15.290Z,968.00
2023-05-08T08:25:06.214Z,984.00
2023-05-08T08:25:57.110Z,1014.00
2023-05-08T08:26:48.054Z,1065.00
2023-05-08T08:27:38.978Z,1110.00
2023-05-08T08:28:29.888Z,1138.00
2023-05-08T08:29:20.818Z,1165.00
2023-05-08T08:30:17.571Z,1189.00
2023-05-08T08:31:03.727Z,1197.00
2023-05-08T08:31:53.442Z,1213.00
2023-05-08T08:32:44.586Z,1230.00
2023-05-08T08:33:35.508Z,1240.00
2023-05-08T08:34:26.504Z,1248.00
2023-05-08T08:35:17.650Z,1264.00
2023-05-08T08:36:08.032Z,1296.00
2023-05-08T08:36:58.953Z,1318.00
2023-05-08T08:37:49.880Z,1334.00
2023-05-08T08:38:40.801Z,1342.00
2023-05-08T08:39:31.713Z,1350.00
2023-05-08T08:40:22.673Z,1354.00
2023-05-08T08:41:13.549Z,1373.00
2023-05-08T08:42:04.474Z,1383.00
2023-05-08T08:42:55.401Z,1389.00
2023-05-08T08:43:46.367Z,1408.00
2023-05-08T08:44:39.225Z,1426.00
2023-05-08T08:45:28.422Z,1448.00
2023-05-08T08:46:19.391Z,1460.00
2023-05-08T08:47:10.009Z,1469.00
2023-05-08T08:48:00.976Z,1501.00
2023-05-08T08:48:51.907Z,1528.00
2023-05-08T08:49:42.951Z,1543.00
2023-05-08T08:50:33.846Z,1558.00
2023-05-08T08:51:24.760Z,1580.00
2023-05-08T08:52:15.702Z,1593.00
2023-05-08T08:53:06.664Z,1611.00
2023-05-08T08:53:57.579Z,1623.00
2023-05-08T08:54:48.517Z,1650.00
2023-05-08T08:55:39.472Z,1671.00
2023-05-08T08:56:30.392Z,1697.00
2023-05-08T08:57:21.317Z,1708.00
2023-05-08T08:58:12.267Z,1727.00
2023-05-08T08:59:03.205Z,1711.00
2023-05-08T08:59:54.138Z,1694.00
2023-05-08T09:00:45.071Z,1673.00
2023-05-08T09:01:36.104Z,1679.00
2023-05-08T09:02:27.152Z,1745.00
2023-05-08T09:03:18.179Z,1796.00
2023-05-08T09:04:09.326Z,1840.00
2023-05-08T09:05:00.356Z,1880.00
2023-05-08T09:05:51.209Z,1906.00
2023-05-08T09:06:42.144Z,1930.00
2023-05-08T09:07:33.088Z,1957.00
2023-05-08T09:08:24.028Z,1928.00
2023-05-08T09:09:14.967Z,1933.00
2023-05-08T09:10:05.905Z,1954.00
2023-05-08T09:10:56.902Z,1978.00
2023-05-08T09:11:47.818Z,1985.00
2023-05-08T09:12:38.770Z,2028.00
2023-05-08T09:13:29.914Z,2050.00
2023-05-08T09:14:20.848Z,2069.00
2023-05-08T09:15:12.025Z,2107.00
2023-05-08T09:16:02.652Z,2153.00
2023-05-08T09:16:53.576Z,2170.00
2023-05-08T09:17:44.483Z,2156.00
2023-05-08T09:18:35.427Z,2171.00
2023-05-08T09:19:28.746Z,2189.00
2023-05-08T09:20:17.158Z,2166.00
2023-05-08T09:21:08.040Z,2168.00
2023-05-08T09:21:58.998Z,2158.00
2023-05-08T09:22:49.925Z,2143.00
2023-05-08T09:23:40.842Z,2126.00
2023-05-08T09:24:31.792Z,2105.00
2023-05-08T09:25:22.719Z,2117.00
2023-05-08T09:26:13.662Z,2110.00
2023-05-08T09:27:04.600Z,2111.00
2023-05-08T09:27:55.544Z,2089.00
2023-05-08T09:28:46.485Z,2077.00
2023-05-08T09:29:37.432Z,2057.00
2023-05-08T09:30:28.375Z,2036.00
2023-05-08T09:31:19.323Z,2033.00
2023-05-08T09:32:10.312Z,2040.00
2023-05-08T09:33:01.293Z,2037.00
2023-05-08T09:33:52.187Z,2048.00
2023-05-08T09:34:43.121Z,2037.00
2023-05-08T09:35:34.209Z,2035.00
2023-05-08T09:36:25.073Z,2057.00
2023-05-08T09:37:16.037Z,2057.00
2023-05-08T09:38:06.951Z,2051.00
2023-05-08T09:38:57.895Z,2042.00
2023-05-08T09:39:48.820Z,2037.00
2023-05-08T09:40:39.770Z,2022.00
2023-05-08T09:41:30.698Z,2024.00
2023-05-08T09:42:21.623Z,2013.00
2023-05-08T09:43:12.594Z,2011.00
2023-05-08T09:44:03.526Z,2009.00
2023-05-08T09:44:54.451Z,2006.00
2023-05-08T09:45:45.408Z,2002.00
2023-05-08T09:46:36.332Z,2008.00
2023-05-08T09:47:27.264Z,2007.00
2023-05-08T09:48:18.225Z,2012.00
2023-05-08T09:49:09.116Z,1999.00
2023-05-08T09:50:00.103Z,1992.00
2023-05-08T09:50:51.132Z,2001.00
2023-05-08T09:51:42.000Z,1995.00
2023-05-08T09:52:32.932Z,1997.00
2023-05-08T09:53:23.887Z,1995.00
2023-05-08T09:54:14.816Z,1993.00
2023-05-08T09:55:05.747Z,1993.00
2023-05-08T09:55:56.681Z,1979.00
2023-05-08T09:56:47.634Z,1984.00
2023-05-08T09:57:38.648Z,1973.00
2023-05-08T09:58:29.529Z,1971.00
2023-05-08T09:59:20.461Z,1967.00
2023-05-08T10:00:11.737Z,1942.00
2023-05-08T10:01:02.285Z,1946.00
2023-05-08T10:01:53.173Z,1947.00
2023-05-08T10:02:44.172Z,1941.00
2023-05-08T10:03:35.107Z,1927.00
2023-05-08T10:04:26.008Z,1920.00
2023-05-08T10:05:16.965Z,1925.00
2023-05-08T10:06:08.002Z,1916.00
2023-05-08T10:06:58.942Z,1917.00
2023-05-08T10:07:49.831Z,1912.00
2023-05-08T10:08:40.795Z,1911.00
2023-05-08T10:09:42.710Z,1919.00
2023-05-08T10:10:23.659Z,1918.00
2023-05-08T10:11:13.365Z,1912.00
2023-05-08T10:12:04.306Z,1913.00
2023-05-08T10:12:55.319Z,1916.00
2023-05-08T10:13:46.210Z,1920.00
2023-05-08T10:14:37.152Z,1915.00
2023-05-08T10:15:28.096Z,1930.00
2023-05-08T10:16:19.077Z,1941.00
2023-05-08T10:17:10.164Z,1956.00
2023-05-08T10:18:01.217Z,1944.00
2023-05-08T10:18:52.122Z,1957.00
2023-05-08T10:19:43.049Z,1958.00
2023-05-08T10:20:33.985Z,1968.00
2023-05-08T10:21:25.029Z,1958.00
2023-05-08T10:22:15.942Z,2002.00
2023-05-08T10:23:06.832Z,1969.00
2023-05-08T10:23:57.784Z,1959.00
2023-05-08T10:24:48.699Z,2002.00
2023-05-08T10:25:39.624Z,1990.00
2023-05-08T10:26:30.556Z,2009.00
2023-05-08T10:27:21.476Z,2022.00
2023-05-08T10:28:12.401Z,2063.00
2023-05-08T10:29:03.371Z,2092.00
2023-05-08T10:29:54.264Z,2027.00
2023-05-08T10:30:45.250Z,1740.00
2023-05-08T10:31:36.291Z,1585.00
2023-05-08T10:32:27.310Z,1383.00
2023-05-08T10:33:18.255Z,1409.00
2023-05-08T10:34:09.168Z,1373.00
2023-05-08T10:35:00.124Z,1393.00
2023-05-08T10:35:51.017Z,1424.00
2023-05-08T10:36:42.060Z,1535.00
2023-05-08T10:37:32.908Z,1461.00
2023-05-08T10:38:23.821Z,1411.00
2023-05-08T10:39:14.748Z,1477.00
2023-05-08T10:40:05.665Z,1460.00
2023-05-08T10:40:56.580Z,1450.00
2023-05-08T10:41:47.520Z,1404.00
2023-05-08T10:42:38.414Z,1412.00
2023-05-08T10:43:29.330Z,1416.00